createdAt,value
2023-05-05T00:00:54.207Z,12.45
2023-05-05T00:01:54.287Z,12.43
2023-05-05T00:02:54.288Z,12.43
2023-05-05T00:03:54.215Z,12.43
2023-05-05T00:04:57.192Z,12.43
2023-05-05T00:05:54.186Z,12.45
2023-05-05T00:06:54.165Z,12.43
2023-05-05T00:07:54.142Z,12.43
2023-05-05T00:08:54.124Z,12.43
2023-05-05T00:09:54.173Z,12.43
2023-05-05T00:10:54.111Z,12.42
2023-05-05T00:11:54.128Z,12.43
2023-05-05T00:12:54.137Z,12.42
2023-05-05T00:13:54.071Z,12.40
2023-05-05T00:14:54.057Z,12.39
2023-05-05T00:15:54.068Z,12.39
2023-05-05T00:16:54.050Z,12.37
2023-05-05T00:17:54.077Z,12.32
2023-05-05T00:18:54.017Z,12.31
2023-05-05T00:19:56.994Z,12.29
2023-05-05T00:20:54.000Z,12.28
2023-05-05T00:21:54.011Z,12.25
2023-05-05T00:22:54.026Z,12.25
2023-05-05T00:23:53.988Z,12.22
2023-05-05T00:24:54.169Z,12.22
2023-05-05T00:25:55.020Z,12.20
2023-05-05T00:26:54.153Z,12.18
2023-05-05T00:27:54.892Z,12.20
2023-05-05T00:28:54.141Z,12.17
2023-05-05T00:29:54.900Z,12.17
2023-05-05T00:30:54.088Z,12.15
2023-05-05T00:31:53.906Z,12.13
2023-05-05T00:32:53.925Z,12.12
2023-05-05T00:33:53.859Z,12.10
2023-05-05T00:34:56.844Z,12.10
2023-05-05T00:35:53.848Z,12.09
2023-05-05T00:36:53.868Z,12.10
2023-05-05T00:37:53.842Z,12.07
2023-05-05T00:38:53.804Z,12.09
2023-05-05T00:39:53.837Z,12.07
2023-05-05T00:40:53.788Z,12.06
2023-05-05T00:41:53.813Z,12.04
2023-05-05T00:42:53.772Z,12.03
2023-05-05T00:43:53.768Z,12.03
2023-05-05T00:44:53.750Z,12.02
2023-05-05T00:45:53.766Z,11.99
2023-05-05T00:46:53.728Z,11.99
2023-05-05T00:47:53.752Z,11.99
2023-05-05T00:48:53.803Z,11.99
2023-05-05T00:49:56.694Z,11.95
2023-05-05T00:50:53.711Z,11.97
2023-05-05T00:51:53.704Z,11.95
2023-05-05T00:52:53.678Z,11.95
2023-05-05T00:53:53.674Z,11.90
2023-05-05T00:54:53.661Z,11.90
2023-05-05T00:55:53.646Z,11.87
2023-05-05T00:56:53.626Z,11.87
2023-05-05T00:57:53.607Z,11.87
2023-05-05T00:58:53.678Z,11.86
2023-05-05T00:59:53.609Z,11.86
2023-05-05T01:00:53.582Z,11.86
2023-05-05T01:01:53.607Z,11.84
2023-05-05T01:02:53.676Z,11.84
2023-05-05T01:03:53.705Z,11.80
2023-05-05T01:04:56.557Z,11.80
2023-05-05T01:05:53.554Z,11.80
2023-05-05T01:07:53.501Z,11.77
2023-05-05T01:08:53.489Z,11.77
2023-05-05T01:10:01.009Z,11.75
2023-05-05T01:10:54.477Z,11.73
2023-05-05T01:11:53.483Z,11.72
2023-05-05T01:12:53.468Z,11.72
2023-05-05T01:13:53.436Z,11.72
2023-05-05T01:14:53.534Z,11.70
2023-05-05T01:15:53.552Z,11.70
2023-05-05T01:16:53.431Z,11.69
2023-05-05T01:17:53.415Z,11.68
2023-05-05T01:18:53.399Z,11.68
2023-05-05T01:19:56.416Z,11.65
2023-05-05T01:20:53.356Z,11.66
2023-05-05T01:21:53.351Z,11.62
2023-05-05T01:22:53.397Z,11.62
2023-05-05T01:23:53.331Z,11.59
2023-05-05T01:24:53.317Z,11.59
2023-05-05T01:25:53.311Z,11.59
2023-05-05T01:26:53.293Z,11.57
2023-05-05T01:27:53.294Z,11.55
2023-05-05T01:28:53.302Z,11.54
2023-05-05T01:29:53.350Z,11.52
2023-05-05T01:30:53.278Z,11.52
2023-05-05T01:31:53.333Z,11.51
2023-05-05T01:32:53.276Z,11.51
2023-05-05T01:33:53.243Z,11.48
2023-05-05T01:34:56.247Z,11.48
2023-05-05T01:35:53.206Z,11.50
2023-05-05T01:36:53.190Z,11.47
2023-05-05T01:37:53.170Z,11.47
2023-05-05T01:38:53.196Z,11.47
2023-05-05T01:39:53.140Z,11.47
2023-05-05T01:40:53.145Z,11.44
2023-05-05T01:41:53.163Z,11.43
2023-05-05T01:42:53.127Z,11.43
2023-05-05T01:43:53.141Z,11.43
2023-05-05T01:45:53.165Z,11.41
2023-05-05T01:46:53.070Z,11.41
2023-05-05T01:47:53.137Z,11.40
2023-05-05T01:48:53.060Z,11.37
2023-05-05T01:49:56.070Z,11.36
2023-05-05T01:50:53.091Z,11.33
2023-05-05T01:51:53.047Z,11.35
2023-05-05T01:52:53.047Z,11.32
2023-05-05T01:53:53.025Z,11.33
2023-05-05T01:54:53.007Z,11.32
2023-05-05T01:55:52.977Z,11.30
2023-05-05T01:56:52.962Z,11.32
2023-05-05T01:57:52.975Z,11.32
2023-05-05T01:58:52.966Z,11.30
2023-05-05T01:59:52.955Z,11.29
2023-05-05T02:00:52.919Z,11.27
2023-05-05T02:01:52.952Z,11.27
2023-05-05T02:02:52.961Z,11.27
2023-05-05T02:03:52.883Z,11.27
2023-05-05T02:04:55.934Z,11.29
2023-05-05T02:05:52.899Z,11.27
2023-05-05T02:06:52.855Z,11.26
2023-05-05T02:07:52.845Z,11.29
2023-05-05T02:08:52.831Z,11.27
2023-05-05T02:10:52.835Z,11.29
2023-05-05T02:11:52.817Z,11.27
2023-05-05T02:12:53.036Z,11.25
2023-05-05T02:13:52.833Z,11.25
2023-05-05T02:14:52.765Z,11.19
2023-05-05T02:15:52.804Z,11.19
2023-05-05T02:16:52.773Z,11.17
2023-05-05T02:17:52.781Z,11.18
2023-05-05T02:18:52.725Z,11.17
2023-05-05T02:19:55.751Z,11.17
2023-05-05T02:20:52.718Z,11.15
2023-05-05T02:21:52.721Z,11.15
2023-05-05T02:22:52.709Z,11.15
2023-05-05T02:23:52.703Z,11.12
2023-05-05T02:24:52.661Z,11.14
2023-05-05T02:25:52.660Z,11.12
2023-05-05T02:26:52.640Z,11.14
2023-05-05T02:27:52.668Z,11.14
2023-05-05T02:28:52.626Z,11.14
2023-05-05T02:29:52.623Z,11.15
2023-05-05T02:30:52.596Z,11.14
2023-05-05T02:31:52.709Z,11.12
2023-05-05T02:32:52.636Z,11.14
2023-05-05T02:33:52.594Z,11.14
2023-05-05T02:34:55.704Z,11.12
2023-05-05T02:35:52.573Z,11.12
2023-05-05T02:36:52.567Z,11.12
2023-05-05T02:37:52.593Z,11.10
2023-05-05T02:38:52.508Z,11.05
2023-05-05T02:39:52.499Z,11.04
2023-05-05T02:40:52.497Z,11.02
2023-05-05T02:41:52.514Z,11.02
2023-05-05T02:42:52.491Z,11.00
2023-05-05T02:43:52.463Z,11.00
2023-05-05T02:44:52.439Z,10.99
2023-05-05T02:45:52.494Z,10.96
2023-05-05T02:46:52.465Z,10.92
2023-05-05T02:47:52.476Z,10.93
2023-05-05T02:48:52.403Z,10.93
2023-05-05T02:49:55.423Z,10.92
2023-05-05T02:50:52.411Z,10.90
2023-05-05T02:51:52.375Z,10.90
2023-05-05T02:52:52.368Z,10.90
2023-05-05T02:53:52.374Z,10.89
2023-05-05T02:54:52.365Z,10.89
2023-05-05T02:55:52.327Z,10.87
2023-05-05T02:56:52.364Z,10.89
2023-05-05T02:57:52.294Z,10.87
2023-05-05T02:58:52.329Z,10.87
2023-05-05T02:59:52.309Z,10.87
2023-05-05T03:00:52.279Z,10.84
2023-05-05T03:01:52.352Z,10.82
2023-05-05T03:02:52.303Z,10.81
2023-05-05T03:03:52.383Z,10.82
2023-05-05T03:04:55.218Z,10.81
2023-05-05T03:05:52.220Z,10.79
2023-05-05T03:06:52.206Z,10.76
2023-05-05T03:07:52.227Z,10.75
2023-05-05T03:08:52.223Z,10.75
2023-05-05T03:09:52.202Z,10.74
2023-05-05T03:10:52.167Z,10.72
2023-05-05T03:11:52.199Z,10.72
2023-05-05T03:12:52.220Z,10.72
2023-05-05T03:13:52.126Z,10.69
2023-05-05T03:14:52.115Z,10.71
2023-05-05T03:15:52.115Z,10.69
2023-05-05T03:16:52.091Z,10.68
2023-05-05T03:17:52.143Z,10.68
2023-05-05T03:18:52.143Z,10.68
2023-05-05T03:19:55.084Z,10.67
2023-05-05T03:20:52.061Z,10.68
2023-05-05T03:21:52.041Z,10.67
2023-05-05T03:22:52.065Z,10.64
2023-05-05T03:23:52.025Z,10.63
2023-05-05T03:24:52.033Z,10.63
2023-05-05T03:25:52.030Z,10.63
2023-05-05T03:26:51.993Z,10.61
2023-05-05T03:27:52.003Z,10.61
2023-05-05T03:28:52.008Z,10.63
2023-05-05T03:29:52.022Z,10.63
2023-05-05T03:30:51.921Z,10.63
2023-05-05T03:31:51.974Z,10.63
2023-05-05T03:32:52.022Z,10.63
2023-05-05T03:33:51.950Z,10.63
2023-05-05T03:34:54.915Z,10.64
2023-05-05T03:35:51.884Z,10.64
2023-05-05T03:36:51.863Z,10.64
2023-05-05T03:37:51.851Z,10.67
2023-05-05T03:38:51.832Z,10.68
2023-05-05T03:39:51.829Z,10.68
2023-05-05T03:40:51.785Z,10.68
2023-05-05T03:41:51.785Z,10.69
2023-05-05T03:42:51.781Z,10.69
2023-05-05T03:43:51.793Z,10.71
2023-05-05T03:44:51.745Z,10.69
2023-05-05T03:45:51.821Z,10.71
2023-05-05T03:46:51.895Z,10.72
2023-05-05T03:47:51.724Z,10.76
2023-05-05T03:48:51.774Z,10.75
2023-05-05T03:49:54.688Z,10.78
2023-05-05T03:50:51.694Z,10.79
2023-05-05T03:51:51.696Z,10.79
2023-05-05T03:52:51.684Z,10.81
2023-05-05T03:53:51.692Z,10.82
2023-05-05T03:54:51.686Z,10.84
2023-05-05T03:55:51.653Z,10.82
2023-05-05T03:56:51.617Z,10.86
2023-05-05T03:57:51.643Z,10.86
2023-05-05T03:58:51.588Z,10.87
2023-05-05T03:59:51.613Z,10.86
2023-05-05T04:00:51.628Z,10.89
2023-05-05T04:01:51.602Z,10.90
2023-05-05T04:02:51.647Z,10.92
2023-05-05T04:03:51.606Z,10.90
2023-05-05T04:04:54.605Z,10.92
2023-05-05T04:05:51.534Z,10.90
2023-05-05T04:06:51.698Z,10.93
2023-05-05T04:07:51.532Z,10.93
2023-05-05T04:08:51.578Z,10.93
2023-05-05T04:09:51.509Z,10.93
2023-05-05T04:10:51.468Z,10.93
2023-05-05T04:11:51.456Z,10.96
2023-05-05T04:12:51.551Z,10.96
2023-05-05T04:13:51.448Z,10.99
2023-05-05T04:14:51.435Z,10.99
2023-05-05T04:15:51.490Z,11.00
2023-05-05T04:16:51.417Z,11.02
2023-05-05T04:17:51.455Z,11.05
2023-05-05T04:18:51.439Z,11.07
2023-05-05T04:19:54.456Z,11.08
2023-05-05T04:20:51.410Z,11.12
2023-05-05T04:21:51.388Z,11.12
2023-05-05T04:22:52.721Z,11.15
2023-05-05T04:23:51.378Z,11.15
2023-05-05T04:24:51.360Z,11.17
2023-05-05T04:25:51.392Z,11.18
2023-05-05T04:26:51.338Z,11.18
2023-05-05T04:27:51.328Z,11.23
2023-05-05T04:28:51.316Z,11.25
2023-05-05T04:29:51.309Z,11.25
2023-05-05T04:30:51.390Z,11.25
2023-05-05T04:31:51.334Z,11.26
2023-05-05T04:32:51.275Z,11.26
2023-05-05T04:33:51.254Z,11.26
2023-05-05T04:34:54.226Z,11.27
2023-05-05T04:35:51.230Z,11.30
2023-05-05T04:36:51.228Z,11.30
2023-05-05T04:37:51.219Z,11.30
2023-05-05T04:38:51.252Z,11.33
2023-05-05T04:39:51.193Z,11.33
2023-05-05T04:40:51.158Z,11.33
2023-05-05T04:41:51.154Z,11.35
2023-05-05T04:42:51.158Z,11.35
2023-05-05T04:43:51.136Z,11.35
2023-05-05T04:44:51.147Z,11.35
2023-05-05T04:45:51.134Z,11.35
2023-05-05T04:46:51.142Z,11.37
2023-05-05T04:47:51.162Z,11.37
2023-05-05T04:48:51.150Z,11.41
2023-05-05T04:49:54.100Z,11.41
2023-05-05T04:50:51.090Z,11.41
2023-05-05T04:51:51.075Z,11.43
2023-05-05T04:52:52.670Z,11.47
2023-05-05T04:53:51.024Z,11.48
2023-05-05T04:54:51.060Z,11.50
2023-05-05T04:55:51.036Z,11.52
2023-05-05T04:56:50.991Z,11.54
2023-05-05T04:57:51.070Z,11.57
2023-05-05T04:58:50.998Z,11.59
2023-05-05T04:59:51.035Z,11.60
2023-05-05T05:01:50.985Z,11.69
2023-05-05T05:02:51.009Z,11.72
2023-05-05T05:03:51.043Z,11.70
2023-05-05T05:04:53.913Z,11.77
2023-05-05T05:05:50.937Z,11.78
2023-05-05T05:06:50.897Z,11.80
2023-05-05T05:07:50.906Z,11.84
2023-05-05T05:08:50.906Z,11.83
2023-05-05T05:09:50.882Z,11.84
2023-05-05T05:10:50.842Z,11.86
2023-05-05T05:11:50.831Z,11.87
2023-05-05T05:12:50.915Z,11.86
2023-05-05T05:13:50.814Z,11.90
2023-05-05T05:14:50.801Z,11.90
2023-05-05T05:15:50.843Z,11.90
2023-05-05T05:16:50.840Z,11.90
2023-05-05T05:17:50.814Z,11.91
2023-05-05T05:18:50.753Z,11.91
2023-05-05T05:19:53.752Z,11.90
2023-05-05T05:20:51.006Z,11.91
2023-05-05T05:21:50.865Z,11.91
2023-05-05T05:22:50.716Z,11.91
2023-05-05T05:23:50.703Z,11.88
2023-05-05T05:24:50.695Z,11.90
2023-05-05T05:25:50.725Z,11.87
2023-05-05T05:26:50.702Z,11.87
2023-05-05T05:28:05.782Z,11.88
2023-05-05T05:28:51.702Z,11.90
2023-05-05T05:29:50.635Z,11.90
2023-05-05T05:30:50.639Z,11.90
2023-05-05T05:31:50.670Z,11.90
2023-05-05T05:32:50.758Z,11.91
2023-05-05T05:33:50.604Z,11.94
2023-05-05T05:34:53.608Z,11.94
2023-05-05T05:35:50.612Z,11.95
2023-05-05T05:36:50.594Z,11.95
2023-05-05T05:37:50.559Z,11.97
2023-05-05T05:38:50.692Z,12.00
2023-05-05T05:39:50.533Z,12.04
2023-05-05T05:40:50.517Z,12.04
2023-05-05T05:41:50.522Z,12.06
2023-05-05T05:42:50.550Z,12.06
2023-05-05T05:43:50.503Z,12.10
2023-05-05T05:44:50.528Z,12.15
2023-05-05T05:46:50.481Z,12.21
2023-05-05T05:47:50.523Z,12.27
2023-05-05T05:48:50.468Z,12.29
2023-05-05T05:49:53.447Z,12.35
2023-05-05T05:51:50.432Z,12.42
2023-05-05T05:52:50.420Z,12.45
2023-05-05T05:53:50.378Z,12.46
2023-05-05T05:54:50.377Z,12.50
2023-05-05T05:55:50.388Z,12.54
2023-05-05T05:56:50.392Z,12.57
2023-05-05T05:57:50.351Z,12.60
2023-05-05T05:59:50.387Z,12.75
2023-05-05T06:00:50.299Z,12.78
2023-05-05T06:01:50.293Z,12.78
2023-05-05T06:02:50.328Z,12.83
2023-05-05T06:03:50.360Z,12.85
2023-05-05T06:04:53.256Z,12.90
2023-05-05T06:05:50.285Z,12.91
2023-05-05T06:06:50.250Z,12.95
2023-05-05T06:07:50.243Z,12.97
2023-05-05T06:08:50.280Z,13.03
2023-05-05T06:09:50.230Z,13.09
2023-05-05T06:10:50.227Z,13.13
2023-05-05T06:11:50.185Z,13.16
2023-05-05T06:12:50.219Z,13.22
2023-05-05T06:13:50.192Z,13.25
2023-05-05T06:14:50.166Z,13.30
2023-05-05T06:16:50.121Z,13.37
2023-05-05T06:17:50.169Z,13.41
2023-05-05T06:18:50.109Z,13.49
2023-05-05T06:19:54.534Z,13.53
2023-05-05T06:20:50.115Z,13.62
2023-05-05T06:22:50.066Z,13.72
2023-05-05T06:24:50.070Z,13.81
2023-05-05T06:25:50.081Z,13.87
2023-05-05T06:26:50.020Z,13.92
2023-05-05T06:27:50.022Z,13.97
2023-05-05T06:28:50.025Z,14.05
2023-05-05T06:29:50.046Z,14.07
2023-05-05T06:30:49.979Z,14.20
2023-05-05T06:31:50.084Z,14.26
2023-05-05T06:32:50.012Z,14.32
2023-05-05T06:33:49.948Z,14.40
2023-05-05T06:34:52.941Z,14.50
2023-05-05T06:35:49.933Z,14.62
2023-05-05T06:36:50.192Z,14.73
2023-05-05T06:37:49.931Z,14.86
2023-05-05T06:38:49.932Z,14.96
2023-05-05T06:39:49.915Z,15.09
2023-05-05T06:40:49.876Z,15.19
2023-05-05T06:42:49.889Z,15.37
2023-05-05T06:44:49.831Z,15.65
2023-05-05T06:45:49.853Z,15.91
2023-05-05T06:47:49.894Z,16.42
2023-05-05T06:49:52.803Z,16.90
2023-05-05T06:50:49.794Z,17.11
2023-05-05T06:51:49.779Z,17.26
2023-05-05T06:52:49.751Z,17.33
2023-05-05T06:53:49.764Z,17.41
2023-05-05T06:54:49.716Z,17.49
2023-05-05T06:55:49.728Z,17.57
2023-05-05T06:56:49.733Z,17.59
2023-05-05T06:57:49.693Z,17.67
2023-05-05T06:58:49.708Z,17.78
2023-05-05T06:59:49.672Z,17.89
2023-05-05T07:00:49.709Z,17.97
2023-05-05T07:02:49.726Z,18.00
2023-05-05T07:03:49.678Z,18.03
2023-05-05T07:05:49.652Z,17.97
2023-05-05T07:06:49.633Z,18.01
2023-05-05T07:07:49.594Z,18.13
2023-05-05T07:08:49.625Z,18.31
2023-05-05T07:09:49.561Z,18.50
2023-05-05T07:10:49.548Z,18.62
2023-05-05T07:11:49.770Z,18.86
2023-05-05T07:12:49.623Z,18.99
2023-05-05T07:13:49.590Z,19.14
2023-05-05T07:15:49.501Z,19.52
2023-05-05T07:16:49.611Z,19.59
2023-05-05T07:18:49.468Z,19.89
2023-05-05T07:20:49.541Z,20.03
2023-05-05T07:22:49.424Z,20.44
2023-05-05T07:23:49.412Z,20.62
2023-05-05T07:25:49.424Z,20.74
2023-05-05T07:26:49.383Z,20.67
2023-05-05T07:27:49.465Z,20.62
2023-05-05T07:28:49.403Z,20.82
2023-05-05T07:29:49.341Z,21.09
2023-05-05T07:30:49.394Z,21.07
2023-05-05T07:31:49.388Z,21.06
2023-05-05T07:33:49.351Z,21.12
2023-05-05T07:35:49.290Z,21.42
2023-05-05T07:36:49.303Z,21.60
2023-05-05T07:38:49.287Z,21.64
2023-05-05T07:39:49.245Z,21.64
2023-05-05T07:40:49.264Z,21.62
2023-05-05T07:41:49.272Z,21.58
2023-05-05T07:42:49.234Z,21.67
2023-05-05T07:43:49.199Z,21.77
2023-05-05T07:45:49.256Z,22.20
2023-05-05T07:46:49.280Z,22.36
2023-05-05T07:47:49.214Z,22.47
2023-05-05T07:48:49.154Z,22.51
2023-05-05T07:49:52.149Z,22.54
2023-05-05T07:51:49.136Z,22.62
2023-05-05T07:52:53.956Z,22.62
2023-05-05T07:53:50.100Z,22.66
2023-05-05T07:54:49.086Z,22.62
2023-05-05T07:56:49.103Z,22.78
2023-05-05T07:57:49.219Z,22.83
2023-05-05T07:58:49.047Z,22.83
2023-05-05T07:59:49.033Z,22.54
2023-05-05T08:01:49.040Z,22.32
2023-05-05T08:03:49.075Z,22.48
2023-05-05T08:04:52.002Z,22.75
2023-05-05T08:05:51.235Z,23.05
2023-05-05T08:06:48.954Z,23.20
2023-05-05T08:07:48.980Z,23.02
2023-05-05T08:08:48.946Z,22.90
2023-05-05T08:09:48.924Z,22.73
2023-05-05T08:10:48.945Z,22.45
2023-05-05T08:11:48.948Z,22.48
2023-05-05T08:12:48.955Z,22.30
2023-05-05T08:13:48.977Z,22.20
2023-05-05T08:14:48.883Z,22.11
2023-05-05T08:15:48.923Z,22.14
2023-05-05T08:16:48.884Z,22.32
2023-05-05T08:18:48.849Z,22.23
2023-05-05T08:19:51.855Z,22.17
2023-05-05T08:20:48.853Z,22.26
2023-05-05T08:21:48.799Z,22.36
2023-05-05T08:22:48.826Z,22.54
2023-05-05T08:23:48.808Z,22.84
2023-05-05T08:24:48.806Z,23.08
2023-05-05T08:26:48.765Z,23.37
2023-05-05T08:27:48.782Z,23.55
2023-05-05T08:28:48.774Z,23.66
2023-05-05T08:30:48.711Z,23.83
2023-05-05T08:31:48.783Z,24.01
2023-05-05T08:32:48.758Z,24.06
2023-05-05T08:33:48.716Z,24.11
2023-05-05T08:34:51.672Z,24.21
2023-05-05T08:36:48.676Z,24.36
2023-05-05T08:37:48.641Z,24.33
2023-05-05T08:38:48.756Z,24.26
2023-05-05T08:39:48.663Z,24.33
2023-05-05T08:40:48.616Z,24.39
2023-05-05T08:41:48.596Z,24.47
2023-05-05T08:42:48.622Z,24.54
2023-05-05T08:44:48.565Z,24.47
2023-05-05T08:45:48.549Z,24.35
2023-05-05T08:46:48.659Z,24.47
2023-05-05T08:47:48.595Z,24.47
2023-05-05T08:48:48.651Z,24.55
2023-05-05T08:49:51.508Z,24.69
2023-05-05T08:51:48.496Z,24.65
2023-05-05T08:52:50.655Z,24.65
2023-05-05T08:53:48.474Z,24.84
2023-05-05T08:54:48.501Z,25.03
2023-05-05T08:56:48.466Z,25.38
2023-05-05T08:57:48.468Z,25.33
2023-05-05T08:59:48.407Z,25.36
2023-05-05T09:00:48.486Z,25.36
2023-05-05T09:02:48.472Z,25.47
2023-05-05T09:04:51.415Z,25.43
2023-05-05T09:05:48.339Z,25.26
2023-05-05T09:06:48.335Z,24.98
2023-05-05T09:07:48.344Z,25.03
2023-05-05T09:08:48.302Z,25.13
2023-05-05T09:09:48.282Z,25.17
2023-05-05T09:10:48.307Z,25.21
2023-05-05T09:12:48.339Z,25.50
2023-05-05T09:13:48.273Z,25.69
2023-05-05T09:14:48.271Z,25.55
2023-05-05T09:16:48.340Z,25.50
2023-05-05T09:17:48.384Z,25.58
2023-05-05T09:18:48.195Z,25.58
2023-05-05T09:19:51.215Z,25.53
2023-05-05T09:20:48.270Z,25.50
2023-05-05T09:21:48.196Z,25.47
2023-05-05T09:22:48.183Z,25.50
2023-05-05T09:23:48.156Z,25.58
2023-05-05T09:24:48.129Z,25.62
2023-05-05T09:25:48.132Z,25.62
2023-05-05T09:26:48.155Z,25.62
2023-05-05T09:27:48.148Z,25.58
2023-05-05T09:29:48.106Z,25.54
2023-05-05T09:30:48.102Z,25.31
2023-05-05T09:32:48.144Z,25.07
2023-05-05T09:33:48.066Z,25.25
2023-05-05T09:34:51.054Z,25.38
2023-05-05T09:35:48.056Z,25.54
2023-05-05T09:36:48.084Z,25.60
2023-05-05T09:37:48.086Z,25.70
2023-05-05T09:39:47.970Z,25.75
2023-05-05T09:40:47.989Z,25.73
2023-05-05T09:41:48.002Z,25.69
2023-05-05T09:42:47.949Z,25.66
2023-05-05T09:43:47.966Z,25.62
2023-05-05T09:44:47.950Z,25.60
2023-05-05T09:45:47.938Z,25.59
2023-05-05T09:46:48.040Z,25.63
2023-05-05T09:47:48.076Z,25.50
2023-05-05T09:48:49.028Z,25.54
2023-05-05T09:49:51.151Z,25.50
2023-05-05T09:50:47.917Z,25.28
2023-05-05T09:51:47.857Z,25.17
2023-05-05T09:52:48.156Z,24.99
2023-05-05T09:53:47.853Z,25.13
2023-05-05T09:54:47.902Z,25.29
2023-05-05T09:55:47.867Z,25.44
2023-05-05T09:57:47.778Z,25.54
2023-05-05T09:58:47.807Z,25.48
2023-05-05T09:59:47.754Z,25.41
2023-05-05T10:00:47.880Z,25.13
2023-05-05T10:02:47.778Z,25.08
2023-05-05T10:03:47.740Z,25.21
2023-05-05T10:04:50.815Z,25.25
2023-05-05T10:05:47.730Z,25.26
2023-05-05T10:06:47.760Z,25.28
2023-05-05T10:08:47.666Z,25.41
2023-05-05T10:09:47.683Z,25.63
2023-05-05T10:10:47.670Z,25.84
2023-05-05T10:11:47.666Z,25.91
2023-05-05T10:12:47.705Z,25.84
2023-05-05T10:13:47.631Z,25.75
2023-05-05T10:15:47.622Z,25.69
2023-05-05T10:16:47.722Z,25.69
2023-05-05T10:17:57.938Z,25.62
2023-05-05T10:18:47.558Z,25.60
2023-05-05T10:19:50.596Z,25.69
2023-05-05T10:20:47.581Z,25.77
2023-05-05T10:21:47.560Z,25.83
2023-05-05T10:22:47.535Z,25.81
2023-05-05T10:23:47.546Z,25.83
2023-05-05T10:24:47.496Z,25.91
2023-05-05T10:25:47.507Z,25.98
2023-05-05T10:26:47.480Z,26.06
2023-05-05T10:27:47.460Z,26.15
2023-05-05T10:28:47.495Z,26.23
2023-05-05T10:29:47.474Z,26.26
2023-05-05T10:30:47.446Z,26.28
2023-05-05T10:31:47.486Z,26.19
2023-05-05T10:33:48.562Z,26.06
2023-05-05T10:34:50.420Z,26.06
2023-05-05T10:35:47.390Z,26.07
2023-05-05T10:36:47.397Z,26.15
2023-05-05T10:37:47.357Z,26.10
2023-05-05T10:38:47.371Z,26.05
2023-05-05T10:39:47.336Z,25.98
2023-05-05T10:41:47.332Z,25.87
2023-05-05T10:42:47.338Z,25.96
2023-05-05T10:43:47.336Z,26.10
2023-05-05T10:44:47.333Z,26.03
2023-05-05T10:45:47.358Z,26.09
2023-05-05T10:46:47.269Z,26.21
2023-05-05T10:47:47.404Z,26.34
2023-05-05T10:48:47.331Z,26.43
2023-05-05T10:49:50.293Z,26.53
2023-05-05T10:51:47.206Z,26.41
2023-05-05T10:52:47.210Z,26.22
2023-05-05T10:53:47.207Z,26.13
2023-05-05T10:54:47.179Z,26.10
2023-05-05T10:55:47.199Z,26.05
2023-05-05T10:56:47.211Z,25.84
2023-05-05T10:57:47.166Z,25.55
2023-05-05T10:58:59.227Z,25.47
2023-05-05T10:59:47.119Z,25.53
2023-05-05T11:00:47.274Z,25.55
2023-05-05T11:01:47.097Z,25.63
2023-05-05T11:02:47.206Z,25.60
2023-05-05T11:03:47.157Z,25.63
2023-05-05T11:04:50.067Z,25.69
2023-05-05T11:06:47.074Z,25.70
2023-05-05T11:07:47.130Z,25.85
2023-05-05T11:08:47.067Z,25.78
2023-05-05T11:09:47.018Z,25.58
2023-05-05T11:11:47.048Z,25.46
2023-05-05T11:12:47.068Z,25.51
2023-05-05T11:13:46.988Z,25.58
2023-05-05T11:14:46.993Z,25.68
2023-05-05T11:16:47.004Z,25.85
2023-05-05T11:17:47.036Z,25.87
2023-05-05T11:19:49.911Z,25.55
2023-05-05T11:21:46.924Z,25.35
2023-05-05T11:22:47.030Z,25.32
2023-05-05T11:23:46.911Z,25.29
2023-05-05T11:24:46.880Z,25.16
2023-05-05T11:25:46.887Z,25.08
2023-05-05T11:26:46.856Z,25.04
2023-05-05T11:27:46.956Z,25.13
2023-05-05T11:28:46.823Z,25.17
2023-05-05T11:29:46.840Z,25.32
2023-05-05T11:30:46.853Z,25.46
2023-05-05T11:31:46.817Z,25.60
2023-05-05T11:33:46.771Z,25.44
2023-05-05T11:34:49.752Z,25.47
2023-05-05T11:36:46.731Z,25.63
2023-05-05T11:37:46.749Z,25.69
2023-05-05T11:38:46.751Z,25.80
2023-05-05T11:39:46.750Z,25.87
2023-05-05T11:40:46.762Z,25.96
2023-05-05T11:41:46.693Z,26.07
2023-05-05T11:42:46.702Z,26.22
2023-05-05T11:44:46.680Z,26.38
2023-05-05T11:45:46.639Z,26.53
2023-05-05T11:46:46.658Z,26.38
2023-05-05T11:47:46.857Z,26.33
2023-05-05T11:48:46.603Z,26.28
2023-05-05T11:49:49.633Z,26.19
2023-05-05T11:50:46.610Z,26.10
2023-05-05T11:51:46.627Z,26.18
2023-05-05T11:52:46.601Z,26.34
2023-05-05T11:54:46.548Z,26.37
2023-05-05T11:55:46.566Z,26.48
2023-05-05T11:56:46.515Z,26.58
2023-05-05T11:57:46.521Z,26.70
2023-05-05T11:59:49.031Z,26.89
2023-05-05T12:00:46.505Z,26.95
2023-05-05T12:01:46.509Z,26.97
2023-05-05T12:02:46.567Z,26.85
2023-05-05T12:03:46.633Z,26.63
2023-05-05T12:04:49.605Z,26.55
2023-05-05T12:05:46.469Z,26.44
2023-05-05T12:06:46.425Z,26.40
2023-05-05T12:07:46.430Z,26.40
2023-05-05T12:08:46.401Z,26.29
2023-05-05T12:09:46.398Z,26.44
2023-05-05T12:11:46.366Z,26.40
2023-05-05T12:12:46.402Z,26.23
2023-05-05T12:13:46.340Z,25.98
2023-05-05T12:14:46.367Z,25.99
2023-05-05T12:15:46.354Z,25.95
2023-05-05T12:17:46.419Z,25.40
2023-05-05T12:18:46.453Z,25.01
2023-05-05T12:19:49.298Z,24.53
2023-05-05T12:20:46.308Z,24.33
2023-05-05T12:21:46.266Z,24.17
2023-05-05T12:22:46.283Z,24.17
2023-05-05T12:23:46.844Z,24.24
2023-05-05T12:24:46.236Z,24.32
2023-05-05T12:25:46.225Z,24.38
2023-05-05T12:26:46.229Z,24.39
2023-05-05T12:27:46.231Z,24.40
2023-05-05T12:28:46.192Z,24.50
2023-05-05T12:29:46.184Z,24.47
2023-05-05T12:30:46.240Z,24.43
2023-05-05T12:31:46.186Z,24.53
2023-05-05T12:32:46.221Z,24.58
2023-05-05T12:33:46.175Z,24.66
2023-05-05T12:34:49.166Z,24.60
2023-05-05T12:35:46.118Z,24.68
2023-05-05T12:36:46.185Z,24.60
2023-05-05T12:37:46.167Z,24.36
2023-05-05T12:38:46.107Z,24.30
2023-05-05T12:40:46.073Z,24.26
2023-05-05T12:41:46.094Z,24.28
2023-05-05T12:42:46.470Z,24.35
2023-05-05T12:43:46.068Z,24.30
2023-05-05T12:44:46.044Z,24.36
2023-05-05T12:45:46.039Z,24.43
2023-05-05T12:46:46.054Z,24.60
2023-05-05T12:47:46.063Z,24.69
2023-05-05T12:48:48.286Z,24.70
2023-05-05T12:49:48.974Z,24.80
2023-05-05T12:50:45.969Z,24.92
2023-05-05T12:52:45.950Z,25.10
2023-05-05T12:53:46.009Z,25.14
2023-05-05T12:55:45.958Z,25.35
2023-05-05T12:56:46.026Z,25.46
2023-05-05T12:57:45.928Z,25.54
2023-05-05T12:58:45.917Z,25.73
2023-05-05T13:00:45.922Z,26.09
2023-05-05T13:01:45.859Z,26.37
2023-05-05T13:02:45.939Z,26.56
2023-05-05T13:03:45.851Z,26.60
2023-05-05T13:04:48.889Z,26.60
2023-05-05T13:05:45.853Z,26.58
2023-05-05T13:07:45.863Z,26.77
2023-05-05T13:09:45.801Z,27.02
2023-05-05T13:10:45.765Z,27.14
2023-05-05T13:11:45.758Z,27.15
2023-05-05T13:12:45.900Z,26.96
2023-05-05T13:13:45.721Z,26.84
2023-05-05T13:14:45.747Z,26.90
2023-05-05T13:15:45.776Z,26.92
2023-05-05T13:17:45.777Z,27.14
2023-05-05T13:18:45.676Z,27.30
2023-05-05T13:19:48.690Z,27.40
2023-05-05T13:20:45.703Z,27.58
2023-05-05T13:22:45.669Z,27.82
2023-05-05T13:23:45.695Z,27.58
2023-05-05T13:24:52.332Z,27.21
2023-05-05T13:25:45.639Z,27.32
2023-05-05T13:27:45.613Z,27.22
2023-05-05T13:28:45.599Z,27.30
2023-05-05T13:29:45.559Z,27.37
2023-05-05T13:30:45.570Z,27.40
2023-05-05T13:31:45.586Z,27.40
2023-05-05T13:32:45.624Z,27.37
2023-05-05T13:33:45.548Z,27.39
2023-05-05T13:34:48.543Z,27.49
2023-05-05T13:35:45.522Z,27.39
2023-05-05T13:36:45.485Z,27.33
2023-05-05T13:37:45.489Z,27.22
2023-05-05T13:38:45.461Z,27.07
2023-05-05T13:39:45.491Z,27.07
2023-05-05T13:40:45.471Z,27.07
2023-05-05T13:42:45.459Z,26.92
2023-05-05T13:43:45.443Z,26.92
2023-05-05T13:44:45.401Z,26.99
2023-05-05T13:45:45.516Z,26.85
2023-05-05T13:46:45.395Z,26.80
2023-05-05T13:47:45.402Z,26.84
2023-05-05T13:48:45.387Z,27.08
2023-05-05T13:49:48.350Z,27.29
2023-05-05T13:50:45.339Z,27.32
2023-05-05T13:51:45.318Z,27.42
2023-05-05T13:52:45.348Z,27.49
2023-05-05T13:53:45.319Z,27.44
2023-05-05T13:54:45.334Z,27.35
2023-05-05T13:56:45.357Z,27.00
2023-05-05T13:58:45.255Z,26.84
2023-05-05T13:59:45.271Z,26.63
2023-05-05T14:01:45.250Z,26.23
2023-05-05T14:02:45.236Z,26.40
2023-05-05T14:03:45.266Z,26.48
2023-05-05T14:04:48.223Z,26.62
2023-05-05T14:05:45.189Z,26.68
2023-05-05T14:06:45.252Z,26.81
2023-05-05T14:08:45.152Z,26.89
2023-05-05T14:09:45.163Z,26.84